Bakherden, Turkmenistan

6:17 AM TMT on August 29, 2014 (GMT +0500)
Ashgabat | Change Station
CLOSE
Current Station
Airport
Location: Ashgabat,
Elevation: 689 ft
Nearby Weather Stations

Elev 689 ft 37.98 °N, 58.37 °E | Updated 17 minutes ago

Clear
Clear
75 °F
Feels Like 75 °F
N
7
Wind Variable Wind from SSE

Today
High -- | Low -- °F
--% Chance of Precip.
Yesterday
High -- | Low -- °F
Precip. -- in
6:36 AM 7:45 PM
Waxing Crescent, 11% visible
Pressure 29.83 in
Visibility 6.2 miles
Clouds Clear
Dew Point 28 °F
Humidity 18%
Rainfall 0.00 in
Snow Depth Not available.
UV 0 out of 12
Pollen Not available.
Air Quality Not available.
Flu Activity Not available.
METAR UTAA 290100Z 15003MPS 9999 SKC 24/M02 Q1010 NOSIG

More Conditions Fewer Conditions

Pressure 29.83 in
Visibility 6.2 miles
Clouds Clear
Dew Point 28 °F
Humidity 18%
Rainfall 0.00 in
Snow Depth Not available.
UV 0 out of 12
Pollen Not available.
Air Quality Not available.
Flu Activity Not available.
METAR UTAA 290100Z 15003MPS 9999 SKC 24/M02 Q1010 NOSIG

More Conditions Fewer Conditions

10-Day Weather Forecast

Almanac

Astronomy

Aug. 29, 2014 Rise Set
Actual Time 6:36 AM TMT 7:45 PM TMT
Civil Twilight 6:09 AM TMT 8:12 PM TMT
Nautical Twilight 5:36 AM TMT 8:44 PM TMT
Astronomical Twilight 5:02 AM TMT 9:18 PM TMT
Moon 9:59 AM TMT 9:32 PM TMT
Length of Visible Light 14h 03m
Length of Day
13h 08m
Tomorrow will be 2m 22s shorter.
Waxing Crescent, 11% of the Moon is Illuminated
Aug 28
Waxing Crescent
Sep 2
First Quarter
Sep 8
Full
Sep 15
Last Quarter
Sep 24
New

Yesterday's Extremes

Country Highs Country Lows

Community

WunderPhotos

Upload Photos

1,748,126 photos uploaded!

Nearby

Snow Depth

Not available.

Earthquake Activity

City Distance Mag. Time & Date
No recent earthquake activity has been reported nearby.
Minimum magnitude displayed is 2.5.

Coastal Water Temperatures

Place Temperature
No Stations Reporting

Nearby Weather Stations